Latest Coastal Weather Observations for Outer Harbor (Black Pole)

IDS60701

Issued at 11:51 pm CST Friday 3 July 2020 (issued every 10 minutes, with the page automatically refreshed every 10 minutes)

About coastal observations | Map of coastal stations | Coastal observations for SA | Marine services | Other Formats
Station Details ID: 023052 Name: BLACK POLE Lat: -34.73 Lon: 138.47 Height: 6.27 m
Data from the previous 72 hours. | See also: Recent months for locations in South Australia
Date/Time
CST
Wind Sea
Height
m
Swell Vis
km
Cloud Weather Temp
°C
Press
hPa
Rain since
9am
mm
Dir  Spd
kts
Gust
kts
Height
m
Period
s
Dir
03/11:30pm SSW 15 20 - - - - - - - - - -
03/11:00pm SW 15 19 - - - - - - - - - -
03/10:30pm SW 14 19 - - - - - - - - - -
03/10:00pm SW 12 15 - - - - - - - - - -
03/09:30pm SW 13 16 - - - - - - - - - -
03/09:00pm SSW 15 17 - - - - - - - - - -
03/08:30pm SSW 14 19 - - - - - - - - - -
03/08:00pm SSW 19 23 - - - - - - - - - -
03/07:30pm SSW 15 21 - - - - - - - - - -
03/07:00pm SSW 15 18 - - - - - - - - - -
03/06:30pm SSW 15 19 - - - - - - - - - -
03/06:00pm SW 17 21 - - - - - - - - - -
03/05:30pm SW 18 25 - - - - - - - - - -
03/05:00pm SW 17 23 - - - - - - - - - -
03/04:30pm SSW 18 23 - - - - - - - - - -
03/04:00pm SW 18 21 - - - - - - - - - -
03/03:30pm SSW 17 21 - - - - - - - - - -
03/03:00pm SW 19 22 - - - - - - - - - -
03/02:30pm SSW 19 24 - - - - - - - - - -
03/02:00pm SW 19 23 - - - - - - - - - -
03/01:30pm SW 20 26 - - - - - - - - - -
03/01:00pm SSW 21 27 - - - - - - - - - -
03/12:30pm SW 21 26 - - - - - - - - - -
03/12:00pm SW 20 24 - - - - - - - - - -
03/11:30am SW 21 25 - - - - - - - - - -
03/11:00am SW 19 23 - - - - - - - - - -
03/10:30am SW 18 22 - - - - - - - - - -
03/10:00am WSW 18 22 - - - - - - - - - -
03/09:30am W 16 21 - - - - - - - - - -
03/09:00am WNW 16 20 - - - - - - - - - -
03/08:30am WNW 17 22 - - - - - - - - - -
03/08:00am NW 12 17 - - - - - - - - - -
03/07:30am N 10 13 - - - - - - - - - -
03/07:00am NNW 10 12 - - - - - - - - - -
03/06:30am NW 17 20 - - - - - - - - - -
03/06:00am NW 15 18 - - - - - - - - - -
03/05:30am WNW 19 22 - - - - - - - - - -
03/05:00am WNW 17 21 - - - - - - - - - -
03/04:30am NW 13 19 - - - - - - - - - -
03/04:00am NNW 11 13 - - - - - - - - - -
03/03:30am NW 14 17 - - - - - - - - - -
03/03:00am NW 14 17 - - - - - - - - - -
03/02:30am NW 17 20 - - - - - - - - - -
03/02:00am WNW 16 19 - - - - - - - - - -
03/01:30am NNW 12 15 - - - - - - - - - -
03/01:00am NNW 12 14 - - - - - - - - - -
03/12:30am NNW 11 13 - - - - - - - - - -
03/12:00am WNW 10 12 - - - - - - - - - -
 
Date/Time
CST
Wind Sea
Height
m
Swell Vis
km
Cloud Weather Temp
°C
Press
hPa
Rain since
9am
mm
Dir  Spd
kts
Gust
kts
Height
m
Period
s
Dir
02/11:30pm WNW 14 17 - - - - - - - - - -
02/11:00pm WNW 13 15 - - - - - - - - - -
02/10:30pm WNW 14 17 - - - - - - - - - -
02/10:00pm WNW 11 13 - - - - - - - - - -
02/09:30pm WNW 12 14 - - - - - - - - - -
02/09:00pm W 9 11 - - - - - - - - - -
02/08:30pm W 12 14 - - - - - - - - - -
02/08:00pm W 12 15 - - - - - - - - - -
02/07:30pm W 13 17 - - - - - - - - - -
02/07:00pm W 11 14 - - - - - - - - - -
02/06:30pm W 11 13 - - - - - - - - - -
02/06:00pm W 13 15 - - - - - - - - - -
02/05:30pm SW 12 14 - - - - - - - - - -
02/05:00pm WSW 14 17 - - - - - - - - - -
02/04:30pm WSW 13 16 - - - - - - - - - -
02/04:00pm WSW 16 19 - - - - - - - - - -
02/03:30pm W 14 16 - - - - - - - - - -
02/03:00pm W 13 17 - - - - - - - - - -
02/02:30pm W 18 24 - - - - - - - - - -
02/02:20pm WNW 16 30 - - - - - - - - - -
02/02:00pm W 15 18 - - - - - - - - - -
02/01:30pm W 13 19 - - - - - - - - - -
02/01:00pm W 18 21 - - - - - - - - - -
02/12:30pm W 16 20 - - - - - - - - - -
02/12:00pm W 15 19 - - - - - - - - - -
02/11:30am WNW 17 22 - - - - - - - - - -
02/11:00am WNW 17 20 - - - - - - - - - -
02/10:30am WNW 15 18 - - - - - - - - - -
02/10:00am WNW 14 17 - - - - - - - - - -
02/09:30am WNW 13 17 - - - - - - - - - -
02/09:00am WNW 16 19 - - - - - - - - - -
02/08:30am WNW 14 17 - - - - - - - - - -
02/08:00am WNW 15 18 - - - - - - - - - -
02/07:30am W 19 24 - - - - - - - - - -
02/07:00am WNW 15 18 - - - - - - - - - -
02/06:30am WNW 16 19 - - - - - - - - - -
02/06:00am WNW 17 20 - - - - - - - - - -
02/05:30am WNW 17 19 - - - - - - - - - -
02/05:00am WNW 17 21 - - - - - - - - - -
02/04:30am W 17 21 - - - - - - - - - -
02/04:00am W 18 23 - - - - - - - - - -
02/03:30am W 16 20 - - - - - - - - - -
02/03:00am W 20 24 - - - - - - - - - -
02/02:30am WNW 18 22 - - - - - - - - - -
02/02:00am W 18 22 - - - - - - - - - -
02/01:30am W 19 24 - - - - - - - - - -
02/01:00am WNW 17 20 - - - - - - - - - -
02/12:30am W 16 19 - - - - - - - - - -
02/12:00am W 17 20 - - - - - - - - - -
 
Date/Time
CST
Wind Sea
Height
m
Swell Vis
km
Cloud Weather Temp
°C
Press
hPa
Rain since
9am
mm
Dir  Spd
kts
Gust
kts
Height
m
Period
s
Dir
01/11:30pm WNW 18 22 - - - - - - - - - -
01/11:00pm WNW 20 28 - - - - - - - - - -
01/10:30pm NW 18 22 - - - - - - - - - -
01/10:00pm NW 17 21 - - - - - - - - - -
01/09:30pm NW 19 22 - - - - - - - - - -
01/09:00pm WNW 16 20 - - - - - - - - - -
01/08:30pm W 23 38 - - - - - - - - - -
01/08:21pm WNW 20 30 - - - - - - - - - -
01/08:00pm WNW 27 33 - - - - - - - - - -
01/07:30pm WNW 20 24 - - - - - - - - - -
01/07:25pm WNW 21 25 - - - - - - - - - -
01/07:00pm W 23 33 - - - - - - - - - -
01/06:47pm W 19 35 - - - - - - - - - -
01/06:30pm W 19 23 - - - - - - - - - -
01/06:00pm W 23 29 - - - - - - - - - -
01/05:30pm W 22 27 - - - - - - - - - -
01/05:23pm WSW 16 26 - - - - - - - - - -
01/05:00pm W 15 20 - - - - - - - - - -
01/04:30pm WNW 21 34 - - - - - - - - - -
01/04:27pm WNW 18 34 - - - - - - - - - -
01/04:25pm WNW 17 23 - - - - - - - - - -
01/04:00pm NW 15 18 - - - - - - - - - -
01/03:30pm NNW 14 16 - - - - - - - - - -
01/03:00pm NNW 14 16 - - - - - - - - - -
01/02:30pm NNW 17 20 - - - - - - - - - -
01/02:00pm NNW 18 21 - - - - - - - - - -
01/01:30pm NW 13 16 - - - - - - - - - -
01/01:00pm NNW 15 18 - - - - - - - - - -
01/12:30pm N 17 22 - - - - - - - - - -
01/12:00pm NNW 19 23 - - - - - - - - - -
01/11:30am N 19 23 - - - - - - - - - -
01/11:00am N 20 27 - - - - - - - - - -
01/10:30am N 16 21 - - - - - - - - - -
01/10:00am N 12 22 - - - - - - - - - -
01/09:30am NNE 9 12 - - - - - - - - - -
01/09:00am NNE 10 12 - - - - - - - - - -
01/08:30am NE 10 12 - - - - - - - - - -
01/08:00am NE 9 11 - - - - - - - - - -
01/07:30am NNE 10 12 - - - - - - - - - -
01/07:00am NNE 11 13 - - - - - - - - - -
01/06:30am NNE 13 15 - - - - - - - - - -
01/06:00am NNE 13 15 - - - - - - - - - -
01/05:30am NNE 11 13 - - - - - - - - - -
01/05:00am NNE 11 12 - - - - - - - - - -
01/04:30am NNE 11 13 - - - - - - - - - -
01/04:00am NNE 9 11 - - - - - - - - - -
01/03:30am NNE 10 11 - - - - - - - - - -
01/03:00am NNE 10 12 - - - - - - - - - -
01/02:30am NNE 10 12 - - - - - - - - - -
01/02:00am NNE 10 12 - - - - - - - - - -
01/01:30am NE 9 11 - - - - - - - - - -
01/01:00am NNE 8 9 - - - - - - - - - -
01/12:30am NNE 6 7 - - - - - - - - - -
01/12:00am NNE 7 9 - - - - - - - - - -

Other formats

Comma delimited format used in spreadsheet applications
http://www.bom.gov.au/fwo/IDS60701/IDS60701.95675.axf

JavaScript Object Notation format (JSON) in row-major order
http://www.bom.gov.au/fwo/IDS60701/IDS60701.95675.json

Data quality

Most of these data are generated automatically and are frequently updated. Quality checks on data are not normally performed. It is possible for incorrect values to appear. Refer to information at About Latest Weather Observations and please check the disclaimer before using these data.